createdAt,value
2023-01-12T00:04:11.760Z,7.48
2023-01-12T00:09:43.485Z,7.34
2023-01-12T00:15:19.690Z,7.48
2023-01-12T00:20:51.157Z,7.32
2023-01-12T00:26:23.061Z,7.37
2023-01-12T00:31:54.902Z,7.45
2023-01-12T00:37:26.537Z,7.39
2023-01-12T00:42:58.079Z,7.4
2023-01-12T00:48:30.028Z,7.42
2023-01-12T00:54:01.613Z,7.45
2023-01-12T00:59:33.156Z,7.53
2023-01-12T01:05:05.206Z,7.6
2023-01-12T01:10:36.700Z,7.58
2023-01-12T01:16:12.779Z,7.67
2023-01-12T01:21:44.476Z,7.72
2023-01-12T01:27:16.210Z,7.8
2023-01-12T01:32:48.253Z,7.89
2023-01-12T01:38:19.721Z,7.95
2023-01-12T01:43:51.771Z,8.01
2023-01-12T01:49:23.417Z,8.08
2023-01-12T01:54:55.185Z,7.91
2023-01-12T02:00:27.751Z,8.04
2023-01-12T02:05:58.418Z,8.02
2023-01-12T02:11:34.528Z,8.1
2023-01-12T02:17:06.139Z,8.27
2023-01-12T02:22:37.868Z,8.21
2023-01-12T02:28:09.578Z,8.14
2023-01-12T02:33:41.445Z,8.11
2023-01-12T02:39:12.976Z,8.2
2023-01-12T02:44:45.080Z,8.08
2023-01-12T02:50:16.579Z,8.14
2023-01-12T02:55:48.130Z,8.17
2023-01-12T03:01:20.023Z,8.04
2023-01-12T03:06:51.728Z,8.17
2023-01-12T03:12:23.560Z,8.07
2023-01-12T03:18:01.410Z,8.04
2023-01-12T03:23:33.150Z,8.15
2023-01-12T03:29:04.861Z,8.07
2023-01-12T03:34:36.567Z,8.04
2023-01-12T03:40:08.507Z,8.11
2023-01-12T03:45:40.164Z,8.15
2023-01-12T03:51:11.965Z,8.14
2023-01-12T03:56:43.495Z,8.17
2023-01-12T04:02:15.315Z,8.28
2023-01-12T04:07:47.213Z,8.27
2023-01-12T04:13:18.619Z,8.29
2023-01-12T04:18:54.990Z,8.23
2023-01-12T04:24:26.447Z,8.39
2023-01-12T04:29:58.382Z,8.27
2023-01-12T04:35:30.215Z,8.36
2023-01-12T04:41:02.185Z,8.33
2023-01-12T04:46:33.336Z,8.24
2023-01-12T04:52:05.130Z,8.27
2023-01-12T04:57:36.835Z,8.39
2023-01-12T05:03:08.551Z,8.35
2023-01-12T05:08:40.454Z,8.31
2023-01-12T05:14:11.913Z,8.37
2023-01-12T05:19:48.059Z,8.37
2023-01-12T05:25:19.773Z,8.36
2023-01-12T05:30:51.749Z,8.35
2023-01-12T05:36:25.056Z,8.44
2023-01-12T05:41:54.977Z,8.41
2023-01-12T05:47:26.639Z,8.48
2023-01-12T05:52:58.428Z,8.42
2023-01-12T05:58:30.200Z,8.48
2023-01-12T06:04:01.860Z,8.42
2023-01-12T06:09:33.929Z,8.48
2023-01-12T06:15:05.688Z,8.42
2023-01-12T06:20:44.096Z,8.29
2023-01-12T06:26:15.342Z,8.45
2023-01-12T06:31:46.992Z,8.34
2023-01-12T06:37:18.717Z,8.32
2023-01-12T06:42:50.740Z,8.29
2023-01-12T06:48:22.351Z,8.47
2023-01-12T06:53:54.155Z,8.45
2023-01-12T06:59:25.901Z,8.38
2023-01-12T07:04:57.629Z,8.65
2023-01-12T07:10:29.340Z,8.42
2023-01-12T07:16:01.625Z,8.46
2023-01-12T07:21:36.949Z,8.67
2023-01-12T07:27:09.321Z,8.58
2023-01-12T07:32:40.742Z,8.76
2023-01-12T07:38:12.339Z,8.82
2023-01-12T07:43:43.794Z,8.67
2023-01-12T07:49:15.973Z,8.88
2023-01-12T07:54:47.238Z,8.73
2023-01-12T08:00:19.660Z,8.95
2023-01-12T08:05:51.071Z,8.82
2023-01-12T08:11:22.682Z,8.95
2023-01-12T08:16:54.118Z,8.95
2023-01-12T08:22:32.562Z,9.09
2023-01-12T08:28:04.255Z,9.01
2023-01-12T08:33:35.650Z,9.04
2023-01-12T08:39:07.703Z,8.93
2023-01-12T08:44:39.159Z,8.89
2023-01-12T08:50:11.282Z,8.93
2023-01-12T08:55:42.855Z,9.13
2023-01-12T09:01:14.863Z,9.06
2023-01-12T09:06:46.033Z,9.11
2023-01-12T09:12:17.774Z,9.14
2023-01-12T09:17:49.722Z,9.25
2023-01-12T09:23:25.753Z,9.21
2023-01-12T09:28:57.361Z,9.38
2023-01-12T09:34:29.105Z,9.28
2023-01-12T09:40:01.140Z,9.32
2023-01-12T09:45:32.688Z,9.4
2023-01-12T09:51:04.459Z,9.49
2023-01-12T09:56:36.159Z,9.6
2023-01-12T10:02:07.741Z,9.62
2023-01-12T10:07:40.924Z,9.71
2023-01-12T10:13:11.326Z,9.73
2023-01-12T10:18:42.765Z,9.75
2023-01-12T10:24:19.753Z,9.92
2023-01-12T10:29:51.206Z,9.91
2023-01-12T10:35:22.798Z,10.08
2023-01-12T10:40:54.086Z,10.13
2023-01-12T10:46:25.998Z,10.11
2023-01-12T10:51:57.979Z,10.02
2023-01-12T10:57:29.521Z,10.25
2023-01-12T11:03:01.021Z,10.05
2023-01-12T11:08:32.708Z,10.11
2023-01-12T11:14:04.941Z,10.18
2023-01-12T11:19:36.437Z,10.11
2023-01-12T11:25:14.577Z,10.12
2023-01-12T11:30:46.103Z,10.1
2023-01-12T11:36:18.105Z,10.25
2023-01-12T11:41:49.478Z,10.44
2023-01-12T11:47:21.246Z,10.82
2023-01-12T11:52:53.851Z,11.06
2023-01-12T11:58:24.645Z,11.71
2023-01-12T12:03:56.679Z,11.75
2023-01-12T12:09:28.121Z,11.12
2023-01-12T12:14:59.812Z,11.14
2023-01-12T12:20:31.505Z,11.12
2023-01-12T12:26:08.010Z,10.88
2023-01-12T12:31:40.046Z,11.06
2023-01-12T12:37:11.099Z,10.84
2023-01-12T12:42:42.816Z,10.85
2023-01-12T12:48:14.776Z,10.68
2023-01-12T12:53:46.817Z,10.79
2023-01-12T12:59:17.946Z,10.79
2023-01-12T13:04:49.653Z,11.0
2023-01-12T13:10:21.631Z,10.93
2023-01-12T13:15:53.204Z,10.93
2023-01-12T13:21:24.853Z,10.95
2023-01-12T13:27:03.210Z,10.76
2023-01-12T13:32:34.912Z,10.85
2023-01-12T13:38:06.402Z,10.83
2023-01-12T13:43:38.365Z,10.91
2023-01-12T13:49:10.112Z,10.83
2023-01-12T13:54:41.901Z,10.8
2023-01-12T14:00:13.308Z,10.89
2023-01-12T14:05:45.034Z,10.71
2023-01-12T14:11:16.773Z,10.83
2023-01-12T14:17:04.676Z,10.62
2023-01-12T14:22:20.155Z,10.71
2023-01-12T14:27:58.288Z,10.78
2023-01-12T14:33:30.056Z,10.7
2023-01-12T14:39:01.758Z,10.71
2023-01-12T14:44:34.004Z,10.63
2023-01-12T14:50:05.217Z,10.65
2023-01-12T14:55:37.196Z,10.7
2023-01-12T15:01:08.722Z,10.67
2023-01-12T15:06:40.342Z,10.82
2023-01-12T15:12:12.252Z,10.8
2023-01-12T15:17:43.776Z,10.79
2023-01-12T15:23:15.568Z,10.84
2023-01-12T15:28:51.645Z,10.7
2023-01-12T15:34:23.381Z,10.75
2023-01-12T15:39:55.037Z,10.7
2023-01-12T15:45:26.833Z,10.55
2023-01-12T15:50:58.762Z,10.64
2023-01-12T15:56:31.143Z,10.7
2023-01-12T16:02:02.573Z,10.6
2023-01-12T16:07:33.705Z,10.66
2023-01-12T16:13:07.568Z,10.7
2023-01-12T16:18:37.519Z,10.82
2023-01-12T16:24:08.880Z,10.67
2023-01-12T16:29:47.526Z,10.64
2023-01-12T16:35:18.820Z,10.65
2023-01-12T16:40:50.785Z,10.59
2023-01-12T16:46:22.858Z,10.53
2023-01-12T16:51:53.988Z,10.5
2023-01-12T16:57:25.607Z,10.54
2023-01-12T17:02:57.395Z,10.36
2023-01-12T17:08:29.059Z,10.31
2023-01-12T17:14:01.104Z,10.33
2023-01-12T17:19:33.029Z,10.26
2023-01-12T17:25:04.461Z,10.24
2023-01-12T17:30:40.360Z,10.39
2023-01-12T17:36:12.281Z,10.48
2023-01-12T17:41:44.250Z,10.31
2023-01-12T17:47:15.852Z,10.45
2023-01-12T17:52:47.217Z,10.41
2023-01-12T17:58:19.021Z,10.37
2023-01-12T18:03:50.705Z,10.42
2023-01-12T18:09:23.088Z,10.46
2023-01-12T18:14:54.068Z,10.53
2023-01-12T18:20:25.841Z,10.56
2023-01-12T18:25:57.587Z,10.63
2023-01-12T18:31:37.790Z,10.43
2023-01-12T18:37:11.172Z,10.52
2023-01-12T18:42:41.439Z,10.54
2023-01-12T18:48:13.163Z,10.45
2023-01-12T18:53:44.858Z,10.47
2023-01-12T18:59:16.321Z,10.54
2023-01-12T19:04:48.046Z,10.57
2023-01-12T19:10:19.784Z,10.53
2023-01-12T19:15:51.843Z,10.59
2023-01-12T19:21:23.211Z,10.64
2023-01-12T19:26:55.136Z,10.6
2023-01-12T19:32:31.039Z,10.62
2023-01-12T19:38:02.795Z,10.66
2023-01-12T19:43:34.542Z,10.77
2023-01-12T19:49:06.273Z,10.62
2023-01-12T19:54:38.819Z,10.66
2023-01-12T20:00:09.712Z,10.68
2023-01-12T20:05:41.446Z,10.73
2023-01-12T20:11:13.204Z,10.68
2023-01-12T20:16:44.901Z,10.68
2023-01-12T20:22:16.643Z,10.7
2023-01-12T20:27:48.333Z,10.79
2023-01-12T20:33:24.500Z,10.69
2023-01-12T20:38:56.380Z,10.71
2023-01-12T20:44:27.876Z,10.56
2023-01-12T20:49:59.751Z,10.67
2023-01-12T20:55:31.566Z,10.59
2023-01-12T21:01:03.430Z,10.63
2023-01-12T21:06:34.821Z,10.64
2023-01-12T21:12:07.495Z,10.56
2023-01-12T21:17:38.593Z,10.51
2023-01-12T21:23:10.260Z,10.58
2023-01-12T21:28:42.249Z,10.58
2023-01-12T21:34:17.860Z,10.56
2023-01-12T21:39:49.570Z,10.65
2023-01-12T21:45:21.328Z,10.53
2023-01-12T21:50:53.042Z,10.56
2023-01-12T21:56:24.778Z,10.68
2023-01-12T22:01:57.209Z,10.68
2023-01-12T22:07:29.702Z,10.6
2023-01-12T22:13:01.021Z,10.59
2023-01-12T22:18:32.768Z,10.77
2023-01-12T22:24:04.196Z,10.73
2023-01-12T22:29:36.149Z,10.63
2023-01-12T22:35:14.013Z,10.77
2023-01-12T22:40:45.743Z,10.72
2023-01-12T22:46:17.515Z,10.71
2023-01-12T22:51:49.174Z,10.68
2023-01-12T22:57:21.233Z,10.72
2023-01-12T23:02:52.723Z,10.67
2023-01-12T23:08:24.800Z,10.76
2023-01-12T23:13:56.050Z,10.81
2023-01-12T23:19:27.808Z,10.77
2023-01-12T23:24:59.719Z,10.78
2023-01-12T23:30:31.524Z,10.73
2023-01-12T23:36:07.379Z,10.86
2023-01-12T23:41:39.407Z,10.83
2023-01-12T23:47:11.027Z,10.8
2023-01-12T23:52:42.713Z,10.81
2023-01-12T23:58:14.759Z,10.76
